createdAt,value
2022-08-26T00:01:37.976Z,15.71
2022-08-26T00:04:04.815Z,15.65
2022-08-26T00:06:32.897Z,15.62
2022-08-26T00:09:00.109Z,15.56
2022-08-26T00:11:27.521Z,15.56
2022-08-26T00:13:55.821Z,15.52
2022-08-26T00:16:25.103Z,15.50
2022-08-26T00:18:53.057Z,15.48
2022-08-26T00:21:20.079Z,15.45
2022-08-26T00:23:47.047Z,15.44
2022-08-26T00:26:14.449Z,15.41
2022-08-26T00:28:41.614Z,15.37
2022-08-26T00:31:11.084Z,15.31
2022-08-26T00:33:38.995Z,15.32
2022-08-26T00:36:06.678Z,15.27
2022-08-26T00:38:34.002Z,15.22
2022-08-26T00:41:00.776Z,15.21
2022-08-26T00:43:30.247Z,15.18
2022-08-26T00:46:37.179Z,15.14
2022-08-26T00:49:16.090Z,15.08
2022-08-26T00:51:47.929Z,15.07
2022-08-26T00:54:15.411Z,15.08
2022-08-26T00:56:50.769Z,15.02
2022-08-26T00:59:18.023Z,15.01
2022-08-26T01:01:46.079Z,14.97
2022-08-26T01:04:17.729Z,14.94
2022-08-26T01:06:45.536Z,14.93
2022-08-26T01:09:12.530Z,14.94
2022-08-26T01:11:40.065Z,14.97
2022-08-26T01:14:08.630Z,14.92
2022-08-26T01:16:36.554Z,14.92
2022-08-26T01:19:16.081Z,14.93
2022-08-26T01:21:55.535Z,14.90
2022-08-26T01:24:22.465Z,14.87
2022-08-26T01:26:49.618Z,14.83
2022-08-26T01:29:19.156Z,14.79
2022-08-26T01:31:52.748Z,14.77
2022-08-26T01:34:23.974Z,14.73
2022-08-26T01:36:58.810Z,14.71
2022-08-26T01:39:25.532Z,14.68
2022-08-26T01:41:57.024Z,14.68
2022-08-26T01:44:29.167Z,14.66
2022-08-26T01:46:58.803Z,14.62
2022-08-26T01:49:27.080Z,14.55
2022-08-26T01:51:57.079Z,14.50
2022-08-26T01:54:25.420Z,14.46
2022-08-26T01:56:54.504Z,14.42
2022-08-26T01:59:24.316Z,14.38
2022-08-26T02:01:51.901Z,14.35
2022-08-26T02:04:33.758Z,14.32
2022-08-26T02:07:08.342Z,14.32
2022-08-26T02:09:41.235Z,14.30
2022-08-26T02:12:10.672Z,14.29
2022-08-26T02:14:44.439Z,14.27
2022-08-26T02:17:12.113Z,14.26
2022-08-26T02:19:45.538Z,14.21
2022-08-26T02:22:16.758Z,14.18
2022-08-26T02:24:51.401Z,14.13
2022-08-26T02:27:22.655Z,14.11
2022-08-26T02:29:55.874Z,14.13
2022-08-26T02:32:22.692Z,14.11
2022-08-26T02:34:50.266Z,14.09
2022-08-26T02:37:17.633Z,14.05
2022-08-26T02:39:44.831Z,14.01
2022-08-26T02:42:11.999Z,14.00
2022-08-26T02:44:38.922Z,14.02
2022-08-26T02:47:07.534Z,14.00
2022-08-26T02:49:34.913Z,13.96
2022-08-26T02:52:02.067Z,13.94
2022-08-26T02:54:29.074Z,13.91
2022-08-26T02:56:56.349Z,13.89
2022-08-26T02:59:24.287Z,13.83
2022-08-26T03:01:51.328Z,13.79
2022-08-26T03:04:18.391Z,13.77
2022-08-26T03:06:47.099Z,13.75
2022-08-26T03:09:20.086Z,13.74
2022-08-26T03:11:47.386Z,13.73
2022-08-26T03:14:14.227Z,13.70
2022-08-26T03:16:41.040Z,13.65
2022-08-26T03:19:09.688Z,13.62
2022-08-26T03:21:38.693Z,13.58
2022-08-26T03:24:06.239Z,13.59
2022-08-26T03:26:32.985Z,13.56
2022-08-26T03:29:18.205Z,13.52
2022-08-26T03:31:47.120Z,13.50
2022-08-26T03:34:14.238Z,13.46
2022-08-26T03:36:41.650Z,13.46
2022-08-26T03:39:08.830Z,13.43
2022-08-26T03:41:37.009Z,13.43
2022-08-26T03:44:06.218Z,13.41
2022-08-26T03:46:34.127Z,13.40
2022-08-26T03:49:02.494Z,13.40
2022-08-26T03:51:29.698Z,13.37
2022-08-26T03:53:57.878Z,13.24
2022-08-26T03:56:25.141Z,13.30
2022-08-26T03:58:53.527Z,13.28
2022-08-26T04:01:20.388Z,13.26
2022-08-26T04:04:00.863Z,13.24
2022-08-26T04:06:30.195Z,13.29
2022-08-26T04:09:00.149Z,13.29
2022-08-26T04:11:34.302Z,13.26
2022-08-26T04:14:05.337Z,13.21
2022-08-26T04:16:32.584Z,13.20
2022-08-26T04:18:59.552Z,13.23
2022-08-26T04:21:27.487Z,13.24
2022-08-26T04:23:54.663Z,13.24
2022-08-26T04:26:22.826Z,13.22
2022-08-26T04:28:52.238Z,13.23
2022-08-26T04:31:19.832Z,13.26
2022-08-26T04:33:49.991Z,13.25
2022-08-26T04:36:17.696Z,13.25
2022-08-26T04:38:47.617Z,13.24
2022-08-26T04:41:15.325Z,13.19
2022-08-26T04:43:43.712Z,13.14
2022-08-26T04:46:12.947Z,13.11
2022-08-26T04:48:41.190Z,13.09
2022-08-26T04:51:09.711Z,13.04
2022-08-26T04:53:37.230Z,12.92
2022-08-26T04:56:04.806Z,12.94
2022-08-26T04:58:32.298Z,12.96
2022-08-26T05:00:59.879Z,13.01
2022-08-26T05:03:30.617Z,13.04
2022-08-26T05:05:57.912Z,13.01
2022-08-26T05:08:25.109Z,12.98
2022-08-26T05:10:57.161Z,12.98
2022-08-26T05:13:26.955Z,13.01
2022-08-26T05:15:54.501Z,13.00
2022-08-26T05:18:25.889Z,13.02
2022-08-26T05:20:54.945Z,13.02
2022-08-26T05:23:23.852Z,13.01
2022-08-26T05:25:57.093Z,12.99
2022-08-26T05:28:28.470Z,12.98
2022-08-26T05:30:56.580Z,12.95
2022-08-26T05:33:23.433Z,12.90
2022-08-26T05:35:50.545Z,12.90
2022-08-26T05:38:20.048Z,12.87
2022-08-26T05:40:52.738Z,12.84
2022-08-26T05:43:21.550Z,12.79
2022-08-26T05:45:49.548Z,12.69
2022-08-26T05:48:18.910Z,12.81
2022-08-26T05:50:51.854Z,12.87
2022-08-26T05:53:21.906Z,12.87
2022-08-26T05:55:51.986Z,12.84
2022-08-26T05:58:21.007Z,12.79
2022-08-26T06:01:01.280Z,12.80
2022-08-26T06:03:29.415Z,12.81
2022-08-26T06:05:57.028Z,12.74
2022-08-26T06:08:24.531Z,12.83
2022-08-26T06:10:54.471Z,12.88
2022-08-26T06:13:24.414Z,12.91
2022-08-26T06:15:52.154Z,12.94
2022-08-26T06:18:25.379Z,12.91
2022-08-26T06:20:57.278Z,12.90
2022-08-26T06:23:45.323Z,12.92
2022-08-26T06:26:14.164Z,12.94
2022-08-26T06:28:41.029Z,13.02
2022-08-26T06:31:12.726Z,13.08
2022-08-26T06:33:39.826Z,13.14
2022-08-26T06:36:07.179Z,13.17
2022-08-26T06:38:34.379Z,13.19
2022-08-26T06:41:03.379Z,13.25
2022-08-26T06:43:30.157Z,13.34
2022-08-26T06:46:02.670Z,13.38
2022-08-26T06:48:32.216Z,13.41
2022-08-26T06:51:20.064Z,13.45
2022-08-26T06:53:51.270Z,13.53
2022-08-26T06:56:21.586Z,13.58
2022-08-26T06:58:49.114Z,13.65
2022-08-26T07:01:20.604Z,13.71
2022-08-26T07:03:48.834Z,13.76
2022-08-26T07:06:18.510Z,13.80
2022-08-26T07:09:04.870Z,13.86
2022-08-26T07:11:35.503Z,13.96
2022-08-26T07:14:02.393Z,14.03
2022-08-26T07:16:30.032Z,14.10
2022-08-26T07:18:57.937Z,14.15
2022-08-26T07:21:25.914Z,14.20
2022-08-26T07:23:58.707Z,14.27
2022-08-26T07:26:30.216Z,14.33
2022-08-26T07:28:58.565Z,14.38
2022-08-26T07:31:28.565Z,14.45
2022-08-26T07:33:57.197Z,14.50
2022-08-26T07:36:28.229Z,14.54
2022-08-26T07:38:55.091Z,14.58
2022-08-26T07:41:24.110Z,14.63
2022-08-26T07:43:53.997Z,14.69
2022-08-26T07:46:27.050Z,14.73
2022-08-26T07:48:54.662Z,14.75
2022-08-26T07:51:22.848Z,14.82
2022-08-26T07:53:52.364Z,14.87
2022-08-26T07:56:20.202Z,14.91
2022-08-26T07:58:51.366Z,14.98
2022-08-26T08:01:18.855Z,15.00
2022-08-26T08:03:45.740Z,15.08
2022-08-26T08:06:12.522Z,15.13
2022-08-26T08:08:41.476Z,15.21
2022-08-26T08:11:10.027Z,15.24
2022-08-26T08:13:38.062Z,15.32
2022-08-26T08:16:05.811Z,15.36
2022-08-26T08:18:32.805Z,15.37
2022-08-26T08:21:19.950Z,15.45
2022-08-26T08:23:49.738Z,15.52
2022-08-26T08:26:16.892Z,15.58
2022-08-26T08:28:44.066Z,15.63
2022-08-26T08:31:38.983Z,15.69
2022-08-26T08:34:09.146Z,15.76
2022-08-26T08:36:36.449Z,15.82
2022-08-26T08:39:03.918Z,15.87
2022-08-26T08:41:31.475Z,15.91
2022-08-26T08:44:01.547Z,15.95
2022-08-26T08:46:30.214Z,16.01
2022-08-26T08:48:59.936Z,16.06
2022-08-26T08:51:52.273Z,16.10
2022-08-26T08:54:19.603Z,16.14
2022-08-26T08:57:18.394Z,16.17
2022-08-26T08:59:56.466Z,16.17
2022-08-26T09:02:47.983Z,16.23
2022-08-26T09:05:19.471Z,16.31
2022-08-26T09:08:02.466Z,16.34
2022-08-26T09:10:44.232Z,16.41
2022-08-26T09:13:16.347Z,16.44
2022-08-26T09:15:47.124Z,16.48
2022-08-26T09:18:35.666Z,16.54
2022-08-26T09:21:06.515Z,16.57
2022-08-26T09:23:36.819Z,16.63
2022-08-26T09:26:29.330Z,16.68
2022-08-26T09:29:00.261Z,16.71
2022-08-26T09:31:29.862Z,16.71
2022-08-26T09:34:18.477Z,16.72
2022-08-26T09:37:04.680Z,16.80
2022-08-26T09:39:39.314Z,16.90
2022-08-26T09:42:14.250Z,17.00
2022-08-26T09:45:05.016Z,17.12
2022-08-26T09:47:41.742Z,17.26
2022-08-26T09:50:29.154Z,17.40
2022-08-26T09:53:17.283Z,17.57
2022-08-26T09:55:50.558Z,17.69
2022-08-26T09:58:34.129Z,17.75
2022-08-26T10:01:03.843Z,17.82
2022-08-26T10:03:35.551Z,17.84
2022-08-26T10:06:17.309Z,17.91
2022-08-26T10:08:48.131Z,17.95
2022-08-26T10:11:23.130Z,17.96
2022-08-26T10:13:56.591Z,17.97
2022-08-26T10:17:15.755Z,18.05
2022-08-26T10:19:57.115Z,18.15
2022-08-26T10:22:30.490Z,18.23
2022-08-26T10:25:02.743Z,18.28
2022-08-26T10:28:02.901Z,18.33
2022-08-26T10:30:45.681Z,18.40
2022-08-26T10:33:15.572Z,18.47
2022-08-26T10:35:54.234Z,18.50
2022-08-26T10:38:30.207Z,18.56
2022-08-26T10:41:25.464Z,18.65
2022-08-26T10:43:59.867Z,18.74
2022-08-26T10:46:34.584Z,18.77
2022-08-26T10:49:09.004Z,18.79
2022-08-26T10:51:49.116Z,18.82
2022-08-26T10:54:46.588Z,18.86
2022-08-26T10:57:29.183Z,18.93
2022-08-26T11:00:01.850Z,18.98
2022-08-26T11:02:46.980Z,18.99
2022-08-26T11:05:23.809Z,18.98
2022-08-26T11:07:54.960Z,19.02
2022-08-26T11:10:22.546Z,19.08
2022-08-26T11:12:52.372Z,19.13
2022-08-26T11:15:24.697Z,19.18
2022-08-26T11:17:51.584Z,19.19
2022-08-26T11:20:33.365Z,19.15
2022-08-26T11:23:27.149Z,19.13
2022-08-26T11:25:57.436Z,19.18
2022-08-26T11:28:34.635Z,19.27
2022-08-26T11:31:02.401Z,19.35
2022-08-26T11:33:43.955Z,19.40
2022-08-26T11:36:28.666Z,19.46
2022-08-26T11:38:55.370Z,19.57
2022-08-26T11:41:24.427Z,19.68
2022-08-26T11:43:52.319Z,19.78
2022-08-26T11:46:31.543Z,19.92
2022-08-26T11:49:06.800Z,20.05
2022-08-26T11:51:40.484Z,20.14
2022-08-26T11:54:16.038Z,20.20
2022-08-26T11:56:44.848Z,20.26
2022-08-26T11:59:17.837Z,20.30
2022-08-26T12:01:49.067Z,20.31
2022-08-26T12:04:43.521Z,20.30
2022-08-26T12:07:10.346Z,20.29
2022-08-26T12:09:50.602Z,20.25
2022-08-26T12:12:23.773Z,20.19
2022-08-26T12:15:16.947Z,20.10
2022-08-26T12:17:45.775Z,20.05
2022-08-26T12:20:19.549Z,19.95
2022-08-26T12:22:48.207Z,19.92
2022-08-26T12:25:22.064Z,19.91
2022-08-26T12:27:53.739Z,19.99
2022-08-26T12:30:26.092Z,20.07
2022-08-26T12:33:22.074Z,20.10
2022-08-26T12:35:56.325Z,20.10
2022-08-26T12:38:25.392Z,20.10
2022-08-26T12:40:52.803Z,20.12
2022-08-26T12:43:39.692Z,20.22
2022-08-26T12:46:07.861Z,20.32
2022-08-26T12:48:38.663Z,20.40
2022-08-26T12:51:20.338Z,20.52
2022-08-26T12:53:47.300Z,20.60
2022-08-26T12:56:40.197Z,20.64
2022-08-26T12:59:21.012Z,20.58
2022-08-26T13:01:49.537Z,20.59
2022-08-26T13:04:42.619Z,20.64
2022-08-26T13:07:27.490Z,20.75
2022-08-26T13:09:57.174Z,20.92
2022-08-26T13:12:31.251Z,21.04
2022-08-26T13:15:05.096Z,21.18
2022-08-26T13:17:32.432Z,21.33
2022-08-26T13:20:03.568Z,21.35
2022-08-26T13:22:31.236Z,21.36
2022-08-26T13:24:58.116Z,21.39
2022-08-26T13:27:26.479Z,21.50
2022-08-26T13:29:54.450Z,21.57
2022-08-26T13:32:27.350Z,21.60
2022-08-26T13:34:56.465Z,21.67
2022-08-26T13:37:24.508Z,21.75
2022-08-26T13:40:04.800Z,21.79
2022-08-26T13:42:31.803Z,21.78
2022-08-26T13:44:58.934Z,21.71
2022-08-26T13:47:27.628Z,21.60
2022-08-26T13:49:55.424Z,21.53
2022-08-26T13:52:27.346Z,21.46
2022-08-26T13:54:59.565Z,21.39
2022-08-26T13:57:28.360Z,21.37
2022-08-26T13:59:56.519Z,21.43
2022-08-26T14:02:23.598Z,21.44
2022-08-26T14:04:50.341Z,21.43
2022-08-26T14:07:17.002Z,21.40
2022-08-26T14:09:43.759Z,21.39
2022-08-26T14:12:10.410Z,21.48
2022-08-26T14:14:37.122Z,21.62
2022-08-26T14:17:05.593Z,21.77
2022-08-26T14:19:32.318Z,21.90
2022-08-26T14:22:00.835Z,21.99
2022-08-26T14:24:29.037Z,22.12
2022-08-26T14:26:55.897Z,22.18
2022-08-26T14:29:22.494Z,22.25
2022-08-26T14:31:49.336Z,22.34
2022-08-26T14:34:16.134Z,22.43
2022-08-26T14:36:43.479Z,22.43
2022-08-26T14:39:13.202Z,22.41
2022-08-26T14:41:54.977Z,22.33
2022-08-26T14:44:32.622Z,22.26
2022-08-26T14:47:01.522Z,22.21
2022-08-26T14:49:28.419Z,22.16
2022-08-26T14:51:55.480Z,22.12
2022-08-26T14:54:22.183Z,22.08
2022-08-26T14:56:58.778Z,22.05
2022-08-26T14:59:50.278Z,22.06
2022-08-26T15:02:27.736Z,22.18
2022-08-26T15:05:00.821Z,22.37
2022-08-26T15:07:27.646Z,22.48
2022-08-26T15:09:54.237Z,22.54
2022-08-26T15:12:21.816Z,22.54
2022-08-26T15:14:48.711Z,22.59
2022-08-26T15:17:15.402Z,22.70
2022-08-26T15:19:41.984Z,22.83
2022-08-26T15:22:08.998Z,22.96
2022-08-26T15:24:36.389Z,23.10
2022-08-26T15:27:03.307Z,23.21
2022-08-26T15:29:30.270Z,23.33
2022-08-26T15:31:58.344Z,23.32
2022-08-26T15:34:25.012Z,23.23
2022-08-26T15:36:51.890Z,23.23
2022-08-26T15:39:19.389Z,23.22
2022-08-26T15:41:46.723Z,23.17
2022-08-26T15:44:14.619Z,23.09
2022-08-26T15:46:42.066Z,22.95
2022-08-26T15:49:09.240Z,22.87
2022-08-26T15:51:47.127Z,22.80
2022-08-26T15:54:16.631Z,22.71
2022-08-26T15:56:44.085Z,22.62
2022-08-26T15:59:11.853Z,22.52
2022-08-26T16:01:39.161Z,22.44
2022-08-26T16:04:06.546Z,22.39
2022-08-26T16:06:36.946Z,22.33
2022-08-26T16:09:04.656Z,22.29
2022-08-26T16:11:31.500Z,22.25
2022-08-26T16:13:58.702Z,22.21
2022-08-26T16:16:26.312Z,22.18
2022-08-26T16:18:53.539Z,22.15
2022-08-26T16:21:24.662Z,22.12
2022-08-26T16:23:51.822Z,22.07
2022-08-26T16:26:25.077Z,22.06
2022-08-26T16:28:52.578Z,22.02
2022-08-26T16:31:19.802Z,22.01
2022-08-26T16:33:46.628Z,21.97
2022-08-26T16:36:14.577Z,21.93
2022-08-26T16:38:42.351Z,21.88
2022-08-26T16:41:09.216Z,21.85
2022-08-26T16:43:36.818Z,21.81
2022-08-26T16:46:07.033Z,21.76
2022-08-26T16:48:34.392Z,21.74
2022-08-26T16:51:01.279Z,21.68
2022-08-26T16:53:28.242Z,21.64
2022-08-26T16:55:55.398Z,21.63
2022-08-26T16:58:22.480Z,21.59
2022-08-26T17:00:49.500Z,21.57
2022-08-26T17:03:16.313Z,21.53
2022-08-26T17:05:43.165Z,21.49
2022-08-26T17:08:10.210Z,21.50
2022-08-26T17:10:37.816Z,21.48
2022-08-26T17:13:04.828Z,21.45
2022-08-26T17:15:31.752Z,21.45
2022-08-26T17:17:59.126Z,21.44
2022-08-26T17:20:26.561Z,21.42
2022-08-26T17:22:55.444Z,21.38
2022-08-26T17:25:24.495Z,21.38
2022-08-26T17:27:51.244Z,21.35
2022-08-26T17:30:18.303Z,21.33
2022-08-26T17:32:45.845Z,21.34
2022-08-26T17:35:14.091Z,21.32
2022-08-26T17:37:41.085Z,21.23
2022-08-26T17:40:11.003Z,21.28
2022-08-26T17:42:39.464Z,21.28
2022-08-26T17:45:07.520Z,21.27
2022-08-26T17:47:34.790Z,21.27
2022-08-26T17:50:01.919Z,21.26
2022-08-26T17:52:29.329Z,21.25
2022-08-26T17:54:57.161Z,21.24
2022-08-26T17:57:24.977Z,21.21
2022-08-26T17:59:52.828Z,21.23
2022-08-26T18:02:21.015Z,21.22
2022-08-26T18:04:47.722Z,21.12
2022-08-26T18:07:15.154Z,21.15
2022-08-26T18:09:42.434Z,21.15
2022-08-26T18:12:10.219Z,21.14
2022-08-26T18:14:37.416Z,21.14
2022-08-26T18:17:04.310Z,21.14
2022-08-26T18:19:31.538Z,21.11
2022-08-26T18:21:58.435Z,21.10
2022-08-26T18:24:25.424Z,21.08
2022-08-26T18:26:52.218Z,21.08
2022-08-26T18:29:19.745Z,21.06
2022-08-26T18:31:46.649Z,21.06
2022-08-26T18:34:15.571Z,21.05
2022-08-26T18:36:43.871Z,21.02
2022-08-26T18:39:11.564Z,20.93
2022-08-26T18:41:50.407Z,20.97
2022-08-26T18:44:19.529Z,20.97
2022-08-26T18:46:47.451Z,20.97
2022-08-26T18:49:16.056Z,20.95
2022-08-26T18:51:43.389Z,20.94
2022-08-26T18:54:11.723Z,20.91
2022-08-26T18:56:40.221Z,20.90
2022-08-26T18:59:08.492Z,20.88
2022-08-26T19:01:36.182Z,20.76
2022-08-26T19:04:05.049Z,20.76
2022-08-26T19:06:33.459Z,20.76
2022-08-26T19:09:00.560Z,20.75
2022-08-26T19:11:32.163Z,20.74
2022-08-26T19:14:09.192Z,20.71
2022-08-26T19:16:37.524Z,20.69
2022-08-26T19:19:04.651Z,20.68
2022-08-26T19:21:33.194Z,20.66
2022-08-26T19:24:02.733Z,20.64
2022-08-26T19:26:30.385Z,20.62
2022-08-26T19:28:58.115Z,20.60
2022-08-26T19:31:26.228Z,20.61
2022-08-26T19:33:52.917Z,20.50
2022-08-26T19:36:23.744Z,20.53
2022-08-26T19:38:51.511Z,20.53
2022-08-26T19:41:21.322Z,20.54
2022-08-26T19:43:49.056Z,20.53
2022-08-26T19:46:19.029Z,20.52
2022-08-26T19:48:47.018Z,20.49
2022-08-26T19:51:19.934Z,20.48
2022-08-26T19:53:48.152Z,20.49
2022-08-26T19:56:15.029Z,20.39
2022-08-26T19:58:42.364Z,20.43
2022-08-26T20:01:09.353Z,20.41
2022-08-26T20:03:37.281Z,20.42
2022-08-26T20:06:06.041Z,20.39
2022-08-26T20:08:34.174Z,20.38
2022-08-26T20:11:02.366Z,20.34
2022-08-26T20:13:29.455Z,20.33
2022-08-26T20:15:56.243Z,20.29
2022-08-26T20:18:41.246Z,20.27
2022-08-26T20:21:26.381Z,20.26
2022-08-26T20:24:06.144Z,20.22
2022-08-26T20:26:35.490Z,20.20
2022-08-26T20:29:02.571Z,20.17
2022-08-26T20:31:29.991Z,20.14
2022-08-26T20:33:57.486Z,20.10
2022-08-26T20:36:26.955Z,20.08
2022-08-26T20:38:55.224Z,20.04
2022-08-26T20:41:24.056Z,19.92
2022-08-26T20:43:50.813Z,19.96
2022-08-26T20:46:21.026Z,19.96
2022-08-26T20:48:49.985Z,19.93
2022-08-26T20:51:18.388Z,19.91
2022-08-26T20:53:45.999Z,19.89
2022-08-26T20:56:14.506Z,19.86
2022-08-26T20:58:41.974Z,19.83
2022-08-26T21:01:17.928Z,19.76
2022-08-26T21:03:45.330Z,19.75
2022-08-26T21:06:12.493Z,19.70
2022-08-26T21:08:42.520Z,19.68
2022-08-26T21:11:10.209Z,19.66
2022-08-26T21:13:54.395Z,19.64
2022-08-26T21:16:25.201Z,19.62
2022-08-26T21:18:52.689Z,19.60
2022-08-26T21:21:25.110Z,19.59
2022-08-26T21:23:52.307Z,19.57
2022-08-26T21:26:19.186Z,19.56
2022-08-26T21:28:46.411Z,19.54
2022-08-26T21:31:16.988Z,19.51
2022-08-26T21:33:43.638Z,19.50
2022-08-26T21:36:11.780Z,19.47
2022-08-26T21:38:39.141Z,19.42
2022-08-26T21:41:09.289Z,19.41
2022-08-26T21:43:36.712Z,19.41
2022-08-26T21:46:14.662Z,19.37
2022-08-26T21:48:47.618Z,19.35
2022-08-26T21:51:19.228Z,19.33
2022-08-26T21:53:45.983Z,19.31
2022-08-26T21:56:15.247Z,19.27
2022-08-26T21:58:42.290Z,19.25
2022-08-26T22:01:11.522Z,19.25
2022-08-26T22:03:47.679Z,19.23
2022-08-26T22:06:21.102Z,19.21
2022-08-26T22:08:47.977Z,19.19
2022-08-26T22:11:15.635Z,19.16
2022-08-26T22:13:43.712Z,19.14
2022-08-26T22:16:11.520Z,19.13
2022-08-26T22:18:39.348Z,19.09
2022-08-26T22:21:08.746Z,19.03
2022-08-26T22:23:37.077Z,19.02
2022-08-26T22:26:04.186Z,18.87
2022-08-26T22:28:31.917Z,18.86
2022-08-26T22:30:58.679Z,18.79
2022-08-26T22:33:26.433Z,18.70
2022-08-26T22:35:54.115Z,18.65
2022-08-26T22:38:23.915Z,18.60
2022-08-26T22:40:57.864Z,18.58
2022-08-26T22:43:26.010Z,18.55
2022-08-26T22:45:54.097Z,18.51
2022-08-26T22:48:25.130Z,18.51
2022-08-26T22:51:00.044Z,18.48
2022-08-26T22:53:27.574Z,18.49
2022-08-26T22:55:54.549Z,18.49
2022-08-26T22:58:21.678Z,18.50
2022-08-26T23:00:57.728Z,18.48
2022-08-26T23:03:26.309Z,18.51
2022-08-26T23:05:53.401Z,18.51
2022-08-26T23:08:20.469Z,18.51
2022-08-26T23:10:48.447Z,18.50
2022-08-26T23:13:16.120Z,18.48
2022-08-26T23:15:44.753Z,18.46
2022-08-26T23:18:12.676Z,18.47
2022-08-26T23:20:40.781Z,18.46
2022-08-26T23:23:07.950Z,18.42
2022-08-26T23:25:35.499Z,18.39
2022-08-26T23:28:02.766Z,18.34
2022-08-26T23:30:31.735Z,18.34
2022-08-26T23:32:58.528Z,18.31
2022-08-26T23:35:25.854Z,18.31
2022-08-26T23:37:53.184Z,18.24
2022-08-26T23:40:33.078Z,18.14
2022-08-26T23:43:03.462Z,18.14
2022-08-26T23:45:32.420Z,18.11
2022-08-26T23:47:59.721Z,18.09
2022-08-26T23:50:48.863Z,18.05
2022-08-26T23:53:19.942Z,18.02
2022-08-26T23:55:55.902Z,17.97
2022-08-26T23:58:22.831Z,17.98
